sensor_id;sensor_type;location;lat;lon;timestamp;P1;durP1;ratioP1;P2;durP2;ratioP2
1402;SDS011;696;48.546;9.896;2023-08-31T00:02:17;2.47;;;1.80;;
1402;SDS011;696;48.546;9.896;2023-08-31T00:04:42;1.88;;;1.40;;
1402;SDS011;696;48.546;9.896;2023-08-31T00:07:08;3.10;;;1.30;;
1402;SDS011;696;48.546;9.896;2023-08-31T00:09:33;2.35;;;1.50;;
1402;SDS011;696;48.546;9.896;2023-08-31T00:12:00;2.95;;;1.52;;
1402;SDS011;696;48.546;9.896;2023-08-31T00:14:27;2.58;;;1.48;;
1402;SDS011;696;48.546;9.896;2023-08-31T00:16:52;1.67;;;1.42;;
1402;SDS011;696;48.546;9.896;2023-08-31T00:19:18;1.58;;;1.13;;
1402;SDS011;696;48.546;9.896;2023-08-31T00:21:44;1.48;;;1.27;;
1402;SDS011;696;48.546;9.896;2023-08-31T00:24:09;1.98;;;1.52;;
1402;SDS011;696;48.546;9.896;2023-08-31T00:26:38;6.75;;;1.90;;
1402;SDS011;696;48.546;9.896;2023-08-31T00:29:06;1.55;;;1.45;;
1402;SDS011;696;48.546;9.896;2023-08-31T00:31:32;1.92;;;1.73;;
1402;SDS011;696;48.546;9.896;2023-08-31T00:33:57;3.65;;;1.98;;
1402;SDS011;696;48.546;9.896;2023-08-31T00:36:22;1.88;;;1.63;;
1402;SDS011;696;48.546;9.896;2023-08-31T00:38:48;1.90;;;1.63;;
1402;SDS011;696;48.546;9.896;2023-08-31T00:41:14;12.35;;;2.00;;
1402;SDS011;696;48.546;9.896;2023-08-31T00:43:39;6.22;;;1.95;;
1402;SDS011;696;48.546;9.896;2023-08-31T00:46:05;3.47;;;2.38;;
1402;SDS011;696;48.546;9.896;2023-08-31T00:48:30;4.53;;;2.35;;
1402;SDS011;696;48.546;9.896;2023-08-31T00:50:56;2.42;;;1.60;;
1402;SDS011;696;48.546;9.896;2023-08-31T00:53:22;2.30;;;1.75;;
1402;SDS011;696;48.546;9.896;2023-08-31T00:55:48;3.13;;;2.50;;
1402;SDS011;696;48.546;9.896;2023-08-31T00:58:13;7.32;;;2.40;;
1402;SDS011;696;48.546;9.896;2023-08-31T01:09:02;4.55;;;2.33;;
1402;SDS011;696;48.546;9.896;2023-08-31T01:11:38;2.83;;;1.85;;
1402;SDS011;696;48.546;9.896;2023-08-31T01:14:15;3.13;;;2.30;;
1402;SDS011;696;48.546;9.896;2023-08-31T01:16:42;2.70;;;2.03;;
1402;SDS011;696;48.546;9.896;2023-08-31T01:19:55;4.10;;;2.50;;
1402;SDS011;696;48.546;9.896;2023-08-31T01:22:25;3.92;;;2.22;;
1402;SDS011;696;48.546;9.896;2023-08-31T01:24:55;6.20;;;1.98;;
1402;SDS011;696;48.546;9.896;2023-08-31T01:27:21;5.47;;;2.08;;
1402;SDS011;696;48.546;9.896;2023-08-31T01:29:47;2.30;;;1.67;;
1402;SDS011;696;48.546;9.896;2023-08-31T01:32:12;2.40;;;1.90;;
1402;SDS011;696;48.546;9.896;2023-08-31T01:34:38;4.10;;;2.20;;
1402;SDS011;696;48.546;9.896;2023-08-31T01:37:06;2.30;;;1.80;;
1402;SDS011;696;48.546;9.896;2023-08-31T01:39:58;3.63;;;1.73;;
1402;SDS011;696;48.546;9.896;2023-08-31T01:42:22;5.85;;;2.03;;
1402;SDS011;696;48.546;9.896;2023-08-31T01:44:49;3.08;;;1.85;;
1402;SDS011;696;48.546;9.896;2023-08-31T01:47:15;3.08;;;1.90;;
1402;SDS011;696;48.546;9.896;2023-08-31T01:49:42;2.42;;;1.75;;
1402;SDS011;696;48.546;9.896;2023-08-31T01:52:08;3.60;;;2.40;;
1402;SDS011;696;48.546;9.896;2023-08-31T01:54:33;3.40;;;2.03;;
1402;SDS011;696;48.546;9.896;2023-08-31T01:56:59;2.53;;;1.90;;
1402;SDS011;696;48.546;9.896;2023-08-31T01:59:24;2.75;;;1.63;;
1402;SDS011;696;48.546;9.896;2023-08-31T02:01:50;4.68;;;2.30;;
1402;SDS011;696;48.546;9.896;2023-08-31T02:04:15;2.13;;;1.92;;
1402;SDS011;696;48.546;9.896;2023-08-31T02:06:40;6.28;;;1.80;;
1402;SDS011;696;48.546;9.896;2023-08-31T02:09:06;2.03;;;1.70;;
1402;SDS011;696;48.546;9.896;2023-08-31T02:11:31;3.85;;;1.98;;
1402;SDS011;696;48.546;9.896;2023-08-31T02:13:57;2.80;;;1.75;;
1402;SDS011;696;48.546;9.896;2023-08-31T02:16:23;2.47;;;1.80;;
1402;SDS011;696;48.546;9.896;2023-08-31T02:18:48;2.55;;;1.85;;
1402;SDS011;696;48.546;9.896;2023-08-31T02:21:14;3.25;;;2.13;;
1402;SDS011;696;48.546;9.896;2023-08-31T02:23:39;9.20;;;2.50;;
1402;SDS011;696;48.546;9.896;2023-08-31T02:26:05;9.25;;;2.47;;
1402;SDS011;696;48.546;9.896;2023-08-31T02:28:30;3.83;;;1.92;;
1402;SDS011;696;48.546;9.896;2023-08-31T02:30:59;2.55;;;2.08;;
1402;SDS011;696;48.546;9.896;2023-08-31T02:33:26;5.40;;;2.30;;
1402;SDS011;696;48.546;9.896;2023-08-31T02:35:52;3.33;;;1.98;;
1402;SDS011;696;48.546;9.896;2023-08-31T02:38:18;6.38;;;2.00;;
1402;SDS011;696;48.546;9.896;2023-08-31T02:40:46;5.53;;;2.65;;
1402;SDS011;696;48.546;9.896;2023-08-31T02:43:12;3.15;;;2.20;;
1402;SDS011;696;48.546;9.896;2023-08-31T02:45:38;2.42;;;1.95;;
1402;SDS011;696;48.546;9.896;2023-08-31T02:48:03;3.13;;;2.08;;
1402;SDS011;696;48.546;9.896;2023-08-31T02:50:31;4.80;;;2.55;;
1402;SDS011;696;48.546;9.896;2023-08-31T02:52:56;6.53;;;2.83;;
1402;SDS011;696;48.546;9.896;2023-08-31T02:55:22;5.75;;;2.45;;
1402;SDS011;696;48.546;9.896;2023-08-31T02:57:48;4.32;;;2.70;;
1402;SDS011;696;48.546;9.896;2023-08-31T03:00:13;3.35;;;2.25;;
1402;SDS011;696;48.546;9.896;2023-08-31T03:02:39;2.92;;;1.98;;
1402;SDS011;696;48.546;9.896;2023-08-31T03:05:04;4.90;;;2.45;;
1402;SDS011;696;48.546;9.896;2023-08-31T03:07:30;7.13;;;2.42;;
1402;SDS011;696;48.546;9.896;2023-08-31T03:09:55;5.25;;;2.75;;
1402;SDS011;696;48.546;9.896;2023-08-31T03:12:20;3.10;;;2.30;;
1402;SDS011;696;48.546;9.896;2023-08-31T03:14:46;3.78;;;2.30;;
1402;SDS011;696;48.546;9.896;2023-08-31T03:17:11;4.43;;;2.28;;
1402;SDS011;696;48.546;9.896;2023-08-31T03:19:36;3.17;;;2.08;;
1402;SDS011;696;48.546;9.896;2023-08-31T03:22:02;16.80;;;2.08;;
1402;SDS011;696;48.546;9.896;2023-08-31T03:24:27;3.10;;;2.10;;
1402;SDS011;696;48.546;9.896;2023-08-31T03:26:52;5.05;;;1.90;;
1402;SDS011;696;48.546;9.896;2023-08-31T03:29:18;2.55;;;2.15;;
1402;SDS011;696;48.546;9.896;2023-08-31T03:31:43;2.58;;;1.80;;
1402;SDS011;696;48.546;9.896;2023-08-31T03:34:09;2.08;;;1.80;;
1402;SDS011;696;48.546;9.896;2023-08-31T03:36:34;3.17;;;2.20;;
1402;SDS011;696;48.546;9.896;2023-08-31T03:39:00;4.30;;;2.28;;
1402;SDS011;696;48.546;9.896;2023-08-31T03:41:25;3.78;;;2.63;;
1402;SDS011;696;48.546;9.896;2023-08-31T03:43:50;7.20;;;2.55;;
1402;SDS011;696;48.546;9.896;2023-08-31T03:46:16;7.38;;;2.35;;
1402;SDS011;696;48.546;9.896;2023-08-31T03:48:41;4.55;;;2.63;;
1402;SDS011;696;48.546;9.896;2023-08-31T03:51:06;7.85;;;2.88;;
1402;SDS011;696;48.546;9.896;2023-08-31T03:53:32;3.00;;;2.20;;
1402;SDS011;696;48.546;9.896;2023-08-31T03:55:57;3.58;;;2.30;;
1402;SDS011;696;48.546;9.896;2023-08-31T03:58:22;2.22;;;1.73;;
1402;SDS011;696;48.546;9.896;2023-08-31T04:00:51;4.10;;;2.20;;
1402;SDS011;696;48.546;9.896;2023-08-31T04:03:17;3.92;;;2.50;;
1402;SDS011;696;48.546;9.896;2023-08-31T04:05:42;4.05;;;2.33;;
1402;SDS011;696;48.546;9.896;2023-08-31T04:08:07;3.65;;;2.42;;
1402;SDS011;696;48.546;9.896;2023-08-31T04:10:32;2.67;;;2.15;;
1402;SDS011;696;48.546;9.896;2023-08-31T04:12:58;10.27;;;3.42;;
1402;SDS011;696;48.546;9.896;2023-08-31T04:15:24;3.20;;;2.25;;
1402;SDS011;696;48.546;9.896;2023-08-31T04:17:49;4.70;;;2.35;;
1402;SDS011;696;48.546;9.896;2023-08-31T04:20:14;3.30;;;2.42;;
1402;SDS011;696;48.546;9.896;2023-08-31T04:22:40;2.63;;;2.13;;
1402;SDS011;696;48.546;9.896;2023-08-31T04:25:06;5.05;;;2.38;;
1402;SDS011;696;48.546;9.896;2023-08-31T04:27:31;3.38;;;2.60;;
1402;SDS011;696;48.546;9.896;2023-08-31T04:29:58;5.57;;;2.40;;
1402;SDS011;696;48.546;9.896;2023-08-31T04:32:24;3.55;;;2.08;;
1402;SDS011;696;48.546;9.896;2023-08-31T04:34:50;2.88;;;2.15;;
1402;SDS011;696;48.546;9.896;2023-08-31T04:37:16;9.25;;;2.38;;
1402;SDS011;696;48.546;9.896;2023-08-31T04:39:41;3.33;;;2.47;;
1402;SDS011;696;48.546;9.896;2023-08-31T04:42:07;4.03;;;2.45;;
1402;SDS011;696;48.546;9.896;2023-08-31T04:44:32;12.15;;;2.38;;
1402;SDS011;696;48.546;9.896;2023-08-31T04:46:57;5.35;;;2.47;;
1402;SDS011;696;48.546;9.896;2023-08-31T04:49:23;2.63;;;2.22;;
1402;SDS011;696;48.546;9.896;2023-08-31T04:51:48;3.28;;;2.45;;
1402;SDS011;696;48.546;9.896;2023-08-31T04:54:13;5.30;;;2.45;;
1402;SDS011;696;48.546;9.896;2023-08-31T04:56:39;4.50;;;2.53;;
1402;SDS011;696;48.546;9.896;2023-08-31T04:59:04;2.60;;;2.40;;
1402;SDS011;696;48.546;9.896;2023-08-31T05:01:29;5.07;;;2.35;;
1402;SDS011;696;48.546;9.896;2023-08-31T05:03:55;2.35;;;2.10;;
1402;SDS011;696;48.546;9.896;2023-08-31T05:06:20;5.47;;;2.45;;
1402;SDS011;696;48.546;9.896;2023-08-31T05:08:46;4.20;;;2.50;;
1402;SDS011;696;48.546;9.896;2023-08-31T05:11:13;3.70;;;2.50;;
1402;SDS011;696;48.546;9.896;2023-08-31T05:13:38;4.78;;;2.50;;
1402;SDS011;696;48.546;9.896;2023-08-31T05:16:07;3.10;;;2.42;;
1402;SDS011;696;48.546;9.896;2023-08-31T05:18:32;4.80;;;3.15;;
1402;SDS011;696;48.546;9.896;2023-08-31T05:20:58;5.05;;;2.47;;
1402;SDS011;696;48.546;9.896;2023-08-31T05:23:23;5.68;;;2.67;;
1402;SDS011;696;48.546;9.896;2023-08-31T05:25:49;3.75;;;2.45;;
1402;SDS011;696;48.546;9.896;2023-08-31T05:28:14;3.28;;;2.53;;
1402;SDS011;696;48.546;9.896;2023-08-31T05:30:47;4.40;;;2.20;;
1402;SDS011;696;48.546;9.896;2023-08-31T05:33:16;3.78;;;2.63;;
1402;SDS011;696;48.546;9.896;2023-08-31T05:35:42;4.72;;;3.03;;
1402;SDS011;696;48.546;9.896;2023-08-31T05:38:08;9.57;;;3.08;;
1402;SDS011;696;48.546;9.896;2023-08-31T05:40:33;6.88;;;2.80;;
1402;SDS011;696;48.546;9.896;2023-08-31T05:42:59;5.07;;;2.97;;
1402;SDS011;696;48.546;9.896;2023-08-31T05:45:24;3.58;;;2.80;;
1402;SDS011;696;48.546;9.896;2023-08-31T05:47:49;2.30;;;2.10;;
1402;SDS011;696;48.546;9.896;2023-08-31T05:50:15;3.67;;;2.67;;
1402;SDS011;696;48.546;9.896;2023-08-31T05:52:40;3.35;;;2.42;;
1402;SDS011;696;48.546;9.896;2023-08-31T05:55:09;3.22;;;2.55;;
1402;SDS011;696;48.546;9.896;2023-08-31T05:57:35;3.85;;;2.55;;
1402;SDS011;696;48.546;9.896;2023-08-31T06:00:00;3.88;;;3.17;;
1402;SDS011;696;48.546;9.896;2023-08-31T06:02:25;5.07;;;3.03;;
1402;SDS011;696;48.546;9.896;2023-08-31T06:04:51;6.75;;;3.40;;
1402;SDS011;696;48.546;9.896;2023-08-31T06:07:16;3.55;;;2.65;;
1402;SDS011;696;48.546;9.896;2023-08-31T06:09:41;6.38;;;2.97;;
1402;SDS011;696;48.546;9.896;2023-08-31T06:12:07;4.38;;;2.83;;
1402;SDS011;696;48.546;9.896;2023-08-31T06:14:32;2.58;;;2.38;;
1402;SDS011;696;48.546;9.896;2023-08-31T06:16:58;5.70;;;3.40;;
1402;SDS011;696;48.546;9.896;2023-08-31T06:19:23;3.42;;;2.67;;
1402;SDS011;696;48.546;9.896;2023-08-31T06:21:49;4.00;;;2.83;;
1402;SDS011;696;48.546;9.896;2023-08-31T06:24:14;4.97;;;3.00;;
1402;SDS011;696;48.546;9.896;2023-08-31T06:26:40;3.97;;;2.63;;
1402;SDS011;696;48.546;9.896;2023-08-31T06:29:05;6.05;;;2.95;;
1402;SDS011;696;48.546;9.896;2023-08-31T06:31:31;6.63;;;2.75;;
1402;SDS011;696;48.546;9.896;2023-08-31T06:33:56;9.30;;;3.03;;
1402;SDS011;696;48.546;9.896;2023-08-31T06:36:21;3.63;;;2.42;;
1402;SDS011;696;48.546;9.896;2023-08-31T06:38:48;4.53;;;2.05;;
1402;SDS011;696;48.546;9.896;2023-08-31T06:41:13;2.78;;;1.92;;
1402;SDS011;696;48.546;9.896;2023-08-31T06:43:38;7.70;;;3.20;;
1402;SDS011;696;48.546;9.896;2023-08-31T06:46:04;6.50;;;2.60;;
1402;SDS011;696;48.546;9.896;2023-08-31T06:48:29;4.90;;;2.30;;
1402;SDS011;696;48.546;9.896;2023-08-31T06:50:54;3.90;;;2.67;;
1402;SDS011;696;48.546;9.896;2023-08-31T06:53:21;2.45;;;1.90;;
1402;SDS011;696;48.546;9.896;2023-08-31T06:55:46;5.97;;;2.17;;
1402;SDS011;696;48.546;9.896;2023-08-31T06:58:11;6.82;;;2.38;;
1402;SDS011;696;48.546;9.896;2023-08-31T07:00:37;4.82;;;2.30;;
1402;SDS011;696;48.546;9.896;2023-08-31T07:03:02;4.82;;;2.50;;
1402;SDS011;696;48.546;9.896;2023-08-31T07:05:32;9.50;;;2.00;;
1402;SDS011;696;48.546;9.896;2023-08-31T07:08:00;3.58;;;2.05;;
1402;SDS011;696;48.546;9.896;2023-08-31T07:10:25;4.70;;;2.22;;
1402;SDS011;696;48.546;9.896;2023-08-31T07:12:50;3.58;;;2.10;;
1402;SDS011;696;48.546;9.896;2023-08-31T07:15:16;4.25;;;2.25;;
1402;SDS011;696;48.546;9.896;2023-08-31T07:17:41;5.28;;;2.58;;
1402;SDS011;696;48.546;9.896;2023-08-31T07:20:07;4.07;;;2.08;;
1402;SDS011;696;48.546;9.896;2023-08-31T07:22:34;4.47;;;1.92;;
1402;SDS011;696;48.546;9.896;2023-08-31T07:24:59;3.92;;;2.40;;
1402;SDS011;696;48.546;9.896;2023-08-31T07:27:25;4.22;;;2.17;;
1402;SDS011;696;48.546;9.896;2023-08-31T07:29:50;4.72;;;2.10;;
1402;SDS011;696;48.546;9.896;2023-08-31T07:32:16;3.50;;;2.15;;
1402;SDS011;696;48.546;9.896;2023-08-31T07:34:41;5.55;;;2.15;;
1402;SDS011;696;48.546;9.896;2023-08-31T07:37:07;3.55;;;2.20;;
1402;SDS011;696;48.546;9.896;2023-08-31T07:39:32;7.93;;;2.70;;
1402;SDS011;696;48.546;9.896;2023-08-31T07:41:57;4.57;;;2.15;;
1402;SDS011;696;48.546;9.896;2023-08-31T07:44:24;1.85;;;1.45;;
1402;SDS011;696;48.546;9.896;2023-08-31T07:46:49;5.38;;;2.20;;
1402;SDS011;696;48.546;9.896;2023-08-31T07:49:15;3.58;;;1.90;;
1402;SDS011;696;48.546;9.896;2023-08-31T07:51:40;3.63;;;2.10;;
1402;SDS011;696;48.546;9.896;2023-08-31T07:54:05;2.83;;;1.85;;
1402;SDS011;696;48.546;9.896;2023-08-31T07:56:31;8.05;;;1.90;;
1402;SDS011;696;48.546;9.896;2023-08-31T07:58:56;4.00;;;1.85;;
1402;SDS011;696;48.546;9.896;2023-08-31T08:01:21;3.20;;;1.65;;
1402;SDS011;696;48.546;9.896;2023-08-31T08:03:47;5.75;;;1.80;;
1402;SDS011;696;48.546;9.896;2023-08-31T08:06:12;4.25;;;1.85;;
1402;SDS011;696;48.546;9.896;2023-08-31T08:08:38;2.38;;;1.58;;
1402;SDS011;696;48.546;9.896;2023-08-31T08:11:04;3.90;;;1.65;;
1402;SDS011;696;48.546;9.896;2023-08-31T08:13:29;2.50;;;1.70;;
1402;SDS011;696;48.546;9.896;2023-08-31T08:15:55;9.73;;;2.10;;
1402;SDS011;696;48.546;9.896;2023-08-31T08:18:20;4.40;;;1.40;;
1402;SDS011;696;48.546;9.896;2023-08-31T08:20:52;2.03;;;1.27;;
1402;SDS011;696;48.546;9.896;2023-08-31T08:23:17;2.60;;;1.65;;
1402;SDS011;696;48.546;9.896;2023-08-31T08:25:43;6.45;;;2.17;;
1402;SDS011;696;48.546;9.896;2023-08-31T08:28:08;3.83;;;1.67;;
1402;SDS011;696;48.546;9.896;2023-08-31T08:30:33;2.75;;;1.33;;
1402;SDS011;696;48.546;9.896;2023-08-31T08:32:59;4.35;;;1.52;;
1402;SDS011;696;48.546;9.896;2023-08-31T08:35:24;3.80;;;1.63;;
1402;SDS011;696;48.546;9.896;2023-08-31T08:37:50;5.63;;;1.65;;
1402;SDS011;696;48.546;9.896;2023-08-31T08:40:15;5.63;;;1.90;;
1402;SDS011;696;48.546;9.896;2023-08-31T08:42:41;6.03;;;1.30;;
1402;SDS011;696;48.546;9.896;2023-08-31T08:45:12;1.17;;;1.08;;
1402;SDS011;696;48.546;9.896;2023-08-31T08:47:42;3.53;;;1.50;;
1402;SDS011;696;48.546;9.896;2023-08-31T08:50:11;12.63;;;2.08;;
1402;SDS011;696;48.546;9.896;2023-08-31T08:52:37;4.35;;;1.58;;
1402;SDS011;696;48.546;9.896;2023-08-31T08:55:06;2.53;;;1.80;;
1402;SDS011;696;48.546;9.896;2023-08-31T08:57:33;4.20;;;1.30;;
1402;SDS011;696;48.546;9.896;2023-08-31T08:59:59;6.45;;;1.63;;
1402;SDS011;696;48.546;9.896;2023-08-31T09:02:24;2.40;;;1.38;;
1402;SDS011;696;48.546;9.896;2023-08-31T09:04:49;3.30;;;1.33;;
1402;SDS011;696;48.546;9.896;2023-08-31T09:07:19;5.03;;;1.40;;
1402;SDS011;696;48.546;9.896;2023-08-31T09:09:49;2.35;;;1.40;;
1402;SDS011;696;48.546;9.896;2023-08-31T09:12:18;2.88;;;1.40;;
1402;SDS011;696;48.546;9.896;2023-08-31T09:14:43;2.88;;;1.35;;
1402;SDS011;696;48.546;9.896;2023-08-31T09:17:09;4.47;;;1.20;;
1402;SDS011;696;48.546;9.896;2023-08-31T09:19:34;2.47;;;1.40;;
1402;SDS011;696;48.546;9.896;2023-08-31T09:22:00;3.30;;;1.30;;
1402;SDS011;696;48.546;9.896;2023-08-31T09:24:25;2.35;;;1.35;;
1402;SDS011;696;48.546;9.896;2023-08-31T09:26:56;4.88;;;1.30;;
1402;SDS011;696;48.546;9.896;2023-08-31T09:29:22;2.78;;;1.45;;
1402;SDS011;696;48.546;9.896;2023-08-31T09:31:47;2.72;;;1.60;;
1402;SDS011;696;48.546;9.896;2023-08-31T09:34:16;4.03;;;1.67;;
1402;SDS011;696;48.546;9.896;2023-08-31T09:36:42;2.00;;;1.20;;
1402;SDS011;696;48.546;9.896;2023-08-31T09:39:08;4.70;;;1.50;;
1402;SDS011;696;48.546;9.896;2023-08-31T09:41:35;3.22;;;1.42;;
1402;SDS011;696;48.546;9.896;2023-08-31T09:44:16;3.40;;;1.63;;
1402;SDS011;696;48.546;9.896;2023-08-31T09:46:43;4.80;;;1.88;;
1402;SDS011;696;48.546;9.896;2023-08-31T09:49:09;4.07;;;1.90;;
1402;SDS011;696;48.546;9.896;2023-08-31T09:51:35;2.40;;;1.20;;
1402;SDS011;696;48.546;9.896;2023-08-31T09:54:03;2.95;;;1.17;;
1402;SDS011;696;48.546;9.896;2023-08-31T09:56:30;5.45;;;1.55;;
1402;SDS011;696;48.546;9.896;2023-08-31T09:58:59;3.92;;;1.55;;
1402;SDS011;696;48.546;9.896;2023-08-31T10:01:25;2.35;;;1.20;;
1402;SDS011;696;48.546;9.896;2023-08-31T10:03:51;3.30;;;1.40;;
1402;SDS011;696;48.546;9.896;2023-08-31T10:06:16;5.78;;;1.70;;
1402;SDS011;696;48.546;9.896;2023-08-31T10:08:42;3.20;;;1.52;;
1402;SDS011;696;48.546;9.896;2023-08-31T10:11:08;3.35;;;1.20;;
1402;SDS011;696;48.546;9.896;2023-08-31T10:13:37;3.47;;;1.60;;
1402;SDS011;696;48.546;9.896;2023-08-31T10:16:05;2.97;;;1.35;;
1402;SDS011;696;48.546;9.896;2023-08-31T10:18:31;2.00;;;1.20;;
1402;SDS011;696;48.546;9.896;2023-08-31T10:20:57;6.47;;;1.30;;
1402;SDS011;696;48.546;9.896;2023-08-31T10:23:22;5.75;;;1.75;;
1402;SDS011;696;48.546;9.896;2023-08-31T10:28:20;1.90;;;1.23;;
1402;SDS011;696;48.546;9.896;2023-08-31T10:31:05;3.20;;;1.60;;
1402;SDS011;696;48.546;9.896;2023-08-31T10:33:41;3.20;;;1.73;;
1402;SDS011;696;48.546;9.896;2023-08-31T10:36:17;2.80;;;1.38;;
1402;SDS011;696;48.546;9.896;2023-08-31T10:41:21;2.42;;;1.38;;
1402;SDS011;696;48.546;9.896;2023-08-31T10:43:56;2.40;;;1.33;;
1402;SDS011;696;48.546;9.896;2023-08-31T10:46:30;3.25;;;1.23;;
1402;SDS011;696;48.546;9.896;2023-08-31T10:51:36;4.43;;;1.55;;
1402;SDS011;696;48.546;9.896;2023-08-31T10:54:10;4.57;;;1.38;;
1402;SDS011;696;48.546;9.896;2023-08-31T10:59:22;5.10;;;1.60;;
1402;SDS011;696;48.546;9.896;2023-08-31T11:04:18;3.83;;;1.42;;
1402;SDS011;696;48.546;9.896;2023-08-31T11:06:43;3.28;;;1.55;;
1402;SDS011;696;48.546;9.896;2023-08-31T11:09:17;4.38;;;1.40;;
1402;SDS011;696;48.546;9.896;2023-08-31T11:11:44;2.70;;;1.40;;
1402;SDS011;696;48.546;9.896;2023-08-31T11:14:10;7.35;;;1.52;;
1402;SDS011;696;48.546;9.896;2023-08-31T11:16:37;5.13;;;1.70;;
1402;SDS011;696;48.546;9.896;2023-08-31T11:19:03;4.28;;;1.48;;
1402;SDS011;696;48.546;9.896;2023-08-31T11:21:29;2.78;;;1.40;;
1402;SDS011;696;48.546;9.896;2023-08-31T11:23:56;3.28;;;1.50;;
1402;SDS011;696;48.546;9.896;2023-08-31T11:26:23;2.88;;;1.48;;
1402;SDS011;696;48.546;9.896;2023-08-31T11:28:49;3.15;;;1.38;;
1402;SDS011;696;48.546;9.896;2023-08-31T11:31:22;5.13;;;1.63;;
1402;SDS011;696;48.546;9.896;2023-08-31T11:33:50;3.10;;;1.63;;
1402;SDS011;696;48.546;9.896;2023-08-31T11:36:16;6.13;;;1.67;;
1402;SDS011;696;48.546;9.896;2023-08-31T11:38:44;2.72;;;1.35;;
1402;SDS011;696;48.546;9.896;2023-08-31T11:41:09;2.47;;;1.40;;
1402;SDS011;696;48.546;9.896;2023-08-31T11:43:35;3.55;;;1.10;;
1402;SDS011;696;48.546;9.896;2023-08-31T11:46:01;3.35;;;1.63;;
1402;SDS011;696;48.546;9.896;2023-08-31T11:48:28;4.35;;;1.50;;
1402;SDS011;696;48.546;9.896;2023-08-31T11:50:53;3.03;;;1.40;;
1402;SDS011;696;48.546;9.896;2023-08-31T11:53:19;4.88;;;1.25;;
1402;SDS011;696;48.546;9.896;2023-08-31T11:55:51;3.35;;;1.58;;
1402;SDS011;696;48.546;9.896;2023-08-31T11:58:17;2.55;;;1.20;;
1402;SDS011;696;48.546;9.896;2023-08-31T12:00:43;4.60;;;1.42;;
1402;SDS011;696;48.546;9.896;2023-08-31T12:03:08;4.18;;;1.50;;
1402;SDS011;696;48.546;9.896;2023-08-31T12:05:47;5.10;;;1.40;;
1402;SDS011;696;48.546;9.896;2023-08-31T12:08:13;1.88;;;1.35;;
1402;SDS011;696;48.546;9.896;2023-08-31T12:10:42;2.50;;;1.42;;
1402;SDS011;696;48.546;9.896;2023-08-31T12:13:08;5.70;;;1.23;;
1402;SDS011;696;48.546;9.896;2023-08-31T12:15:34;2.80;;;1.27;;
1402;SDS011;696;48.546;9.896;2023-08-31T12:18:06;4.15;;;1.75;;
1402;SDS011;696;48.546;9.896;2023-08-31T12:20:32;2.08;;;1.23;;
1402;SDS011;696;48.546;9.896;2023-08-31T12:22:57;5.85;;;1.38;;
1402;SDS011;696;48.546;9.896;2023-08-31T12:25:23;4.32;;;1.15;;
1402;SDS011;696;48.546;9.896;2023-08-31T12:27:48;6.53;;;1.35;;
1402;SDS011;696;48.546;9.896;2023-08-31T12:30:15;2.38;;;1.05;;
1402;SDS011;696;48.546;9.896;2023-08-31T12:32:40;6.68;;;1.08;;
1402;SDS011;696;48.546;9.896;2023-08-31T12:35:05;3.45;;;1.42;;
1402;SDS011;696;48.546;9.896;2023-08-31T12:37:31;3.30;;;1.10;;
1402;SDS011;696;48.546;9.896;2023-08-31T12:39:57;2.95;;;1.45;;
1402;SDS011;696;48.546;9.896;2023-08-31T12:42:23;1.60;;;1.08;;
1402;SDS011;696;48.546;9.896;2023-08-31T12:44:48;3.15;;;1.15;;
1402;SDS011;696;48.546;9.896;2023-08-31T12:47:14;1.75;;;1.00;;
1402;SDS011;696;48.546;9.896;2023-08-31T12:49:39;4.53;;;1.08;;
1402;SDS011;696;48.546;9.896;2023-08-31T12:52:05;2.22;;;1.20;;
1402;SDS011;696;48.546;9.896;2023-08-31T12:54:30;2.85;;;1.08;;
1402;SDS011;696;48.546;9.896;2023-08-31T12:56:55;2.67;;;1.35;;
1402;SDS011;696;48.546;9.896;2023-08-31T12:59:21;4.15;;;1.65;;
1402;SDS011;696;48.546;9.896;2023-08-31T13:01:46;2.72;;;1.30;;
1402;SDS011;696;48.546;9.896;2023-08-31T13:04:12;5.57;;;1.52;;
1402;SDS011;696;48.546;9.896;2023-08-31T13:06:37;4.20;;;1.60;;
1402;SDS011;696;48.546;9.896;2023-08-31T13:09:02;3.63;;;1.08;;
1402;SDS011;696;48.546;9.896;2023-08-31T13:11:30;6.38;;;1.23;;
1402;SDS011;696;48.546;9.896;2023-08-31T13:13:55;3.13;;;1.00;;
1402;SDS011;696;48.546;9.896;2023-08-31T13:16:21;1.85;;;1.25;;
1402;SDS011;696;48.546;9.896;2023-08-31T13:18:49;1.80;;;1.13;;
1402;SDS011;696;48.546;9.896;2023-08-31T13:21:14;3.03;;;1.40;;
1402;SDS011;696;48.546;9.896;2023-08-31T13:23:40;3.75;;;1.40;;
1402;SDS011;696;48.546;9.896;2023-08-31T13:26:08;2.88;;;1.40;;
1402;SDS011;696;48.546;9.896;2023-08-31T13:28:33;3.13;;;1.40;;
1402;SDS011;696;48.546;9.896;2023-08-31T13:30:58;3.33;;;1.30;;
1402;SDS011;696;48.546;9.896;2023-08-31T13:33:25;2.97;;;1.45;;
1402;SDS011;696;48.546;9.896;2023-08-31T13:35:53;5.40;;;1.80;;
1402;SDS011;696;48.546;9.896;2023-08-31T13:38:22;4.00;;;1.67;;
1402;SDS011;696;48.546;9.896;2023-08-31T13:40:47;2.63;;;1.20;;
1402;SDS011;696;48.546;9.896;2023-08-31T13:43:13;4.90;;;1.75;;
1402;SDS011;696;48.546;9.896;2023-08-31T13:45:38;3.58;;;1.40;;
1402;SDS011;696;48.546;9.896;2023-08-31T13:48:04;2.20;;;1.30;;
1402;SDS011;696;48.546;9.896;2023-08-31T13:50:29;2.50;;;1.40;;
1402;SDS011;696;48.546;9.896;2023-08-31T13:52:55;2.00;;;1.30;;
1402;SDS011;696;48.546;9.896;2023-08-31T13:55:20;2.13;;;1.05;;
1402;SDS011;696;48.546;9.896;2023-08-31T13:57:46;2.78;;;1.23;;
1402;SDS011;696;48.546;9.896;2023-08-31T14:00:11;7.60;;;1.17;;
1402;SDS011;696;48.546;9.896;2023-08-31T14:02:37;2.67;;;1.10;;
1402;SDS011;696;48.546;9.896;2023-08-31T14:05:04;3.42;;;1.42;;
1402;SDS011;696;48.546;9.896;2023-08-31T14:07:31;2.40;;;1.00;;
1402;SDS011;696;48.546;9.896;2023-08-31T14:09:56;2.80;;;1.00;;
1402;SDS011;696;48.546;9.896;2023-08-31T14:12:23;2.08;;;1.33;;
1402;SDS011;696;48.546;9.896;2023-08-31T14:14:49;2.08;;;1.17;;
1402;SDS011;696;48.546;9.896;2023-08-31T14:17:14;2.65;;;1.25;;
1402;SDS011;696;48.546;9.896;2023-08-31T14:19:40;2.42;;;1.30;;
1402;SDS011;696;48.546;9.896;2023-08-31T14:22:05;3.40;;;1.25;;
1402;SDS011;696;48.546;9.896;2023-08-31T14:24:30;2.47;;;1.10;;
1402;SDS011;696;48.546;9.896;2023-08-31T14:26:56;5.93;;;1.30;;
1402;SDS011;696;48.546;9.896;2023-08-31T14:29:22;3.03;;;1.35;;
1402;SDS011;696;48.546;9.896;2023-08-31T14:31:48;4.72;;;1.55;;
1402;SDS011;696;48.546;9.896;2023-08-31T14:34:13;4.40;;;1.75;;
1402;SDS011;696;48.546;9.896;2023-08-31T14:36:38;5.07;;;1.52;;
1402;SDS011;696;48.546;9.896;2023-08-31T14:39:04;4.65;;;1.30;;
1402;SDS011;696;48.546;9.896;2023-08-31T14:41:30;3.72;;;1.27;;
1402;SDS011;696;48.546;9.896;2023-08-31T14:43:56;3.00;;;1.30;;
1402;SDS011;696;48.546;9.896;2023-08-31T14:46:21;2.38;;;1.38;;
1402;SDS011;696;48.546;9.896;2023-08-31T14:48:47;4.28;;;1.60;;
1402;SDS011;696;48.546;9.896;2023-08-31T14:51:12;3.75;;;1.10;;
1402;SDS011;696;48.546;9.896;2023-08-31T14:53:38;4.35;;;1.30;;
1402;SDS011;696;48.546;9.896;2023-08-31T14:56:05;1.48;;;1.30;;
1402;SDS011;696;48.546;9.896;2023-08-31T14:58:30;3.03;;;1.40;;
1402;SDS011;696;48.546;9.896;2023-08-31T15:00:56;2.45;;;1.23;;
1402;SDS011;696;48.546;9.896;2023-08-31T15:03:21;2.05;;;1.20;;
1402;SDS011;696;48.546;9.896;2023-08-31T15:05:48;3.08;;;1.20;;
1402;SDS011;696;48.546;9.896;2023-08-31T15:08:14;4.85;;;1.83;;
1402;SDS011;696;48.546;9.896;2023-08-31T15:10:40;4.88;;;1.63;;
1402;SDS011;696;48.546;9.896;2023-08-31T15:13:05;5.18;;;1.48;;
1402;SDS011;696;48.546;9.896;2023-08-31T15:15:31;1.80;;;1.15;;
1402;SDS011;696;48.546;9.896;2023-08-31T15:17:56;1.90;;;1.20;;
1402;SDS011;696;48.546;9.896;2023-08-31T15:20:22;6.80;;;1.13;;
1402;SDS011;696;48.546;9.896;2023-08-31T15:22:48;2.58;;;1.38;;
1402;SDS011;696;48.546;9.896;2023-08-31T15:25:13;2.58;;;1.02;;
1402;SDS011;696;48.546;9.896;2023-08-31T15:27:40;2.65;;;1.45;;
1402;SDS011;696;48.546;9.896;2023-08-31T15:30:06;2.65;;;1.05;;
1402;SDS011;696;48.546;9.896;2023-08-31T15:32:33;4.13;;;1.52;;
1402;SDS011;696;48.546;9.896;2023-08-31T15:34:59;2.35;;;1.40;;
1402;SDS011;696;48.546;9.896;2023-08-31T15:37:24;2.90;;;1.40;;
1402;SDS011;696;48.546;9.896;2023-08-31T15:39:50;3.78;;;1.13;;
1402;SDS011;696;48.546;9.896;2023-08-31T15:42:16;4.43;;;1.60;;
1402;SDS011;696;48.546;9.896;2023-08-31T15:44:41;5.80;;;1.88;;
1402;SDS011;696;48.546;9.896;2023-08-31T15:47:07;2.65;;;1.60;;